NCAR-RAP Real-Time Weather Data

Output produced by METARs form (19 June 2019  11:43 UTC)
found at http://weather.rap.ucar.edu/surface/
 
KFSD 191056Z 00000KT 10SM BKN250 12/11 A2986 RMK AO2 SLP109 T01170106
KFSD 190956Z 00000KT 10SM SCT250 13/11 A2985 RMK AO2 SLP103 T01330111
KFSD 190856Z AUTO 02003KT 10SM CLR 12/11 A2984 RMK AO2 SLP103 T01220106 58017
KFSD 190756Z AUTO 00000KT 10SM CLR 13/11 A2988 RMK AO2 SLP115 T01280111
KFSD 190656Z AUTO VRB03KT 10SM CLR 13/11 A2988 RMK AO2 SLP116 T01280106
KFSD 190556Z AUTO 04003KT 10SM CLR 14/11 A2990 RMK AO2 SLP120 T01390111 10228 20133 402440133 58002
KFSD 190456Z 00000KT 10SM FEW250 16/11 A2991 RMK AO2 SLP124 LAST T01560106
KFSD 190356Z 00000KT 10SM FEW060 FEW220 17/12 A2992 RMK AO2 SLP128 T01670117
KFSD 190256Z 00000KT 10SM FEW060 SCT220 18/11 A2990 RMK AO2 SLP122 T01780106 58001
KFSD 190156Z 00000KT 10SM FEW060 OVC220 21/12 A2990 RMK AO2 SLP121 T02060117
KFSD 190056Z 08003KT 10SM SCT060 OVC220 22/13 A2991 RMK AO2 SLP125 T02170128
KFSD 182356Z 10007KT 10SM SCT060 OVC220 23/11 A2991 RMK AO2 SLP123 T02280111 10244 20222 56014
KFSD 182256Z 02006KT 10SM SCT055 OVC220 24/12 A2991 RMK AO2 SLP125 T02440122
KFSD 182156Z 08004KT 10SM FEW050 OVC220 24/12 A2993 RMK AO2 SLP130 T02390117
KFSD 182056Z 02004KT 10SM FEW050 OVC250 23/11 A2995 RMK AO2 SLP136 T02330106 58012
KFSD 181956Z 02006KT 10SM FEW050 BKN250 23/11 A2996 RMK AO2 SLP141 T02280106 $
KFSD 181856Z 35006KT 10SM FEW045 BKN250 23/10 A2998 RMK AO2 SLP145 T02280100 $
KFSD 181756Z 36008KT 10SM FEW045 BKN250 23/11 A2999 RMK AO2 SLP149 6//// T02280106 10228 20161 58010 $
KFSD 181656Z 01009KT 10SM FEW040 FEW100 BKN250 22/11 A3001 RMK AO2 SLP155 T02220111 PNO $
KFSD 181556Z 02007KT 10SM FEW042 FEW100 BKN250 21/11 A3001 RMK AO2 SLP157 T02110111 PNO $
KFSD 181456Z 03007KT 10SM FEW100 BKN250 21/11 A3002 RMK AO2 SLP160 T02060106 58001